KBUF Airport (Buffalo Niagara Intl) Information

FAA: BUF - ICAO: KBUF

KBUF Airport Location

State New York
County Erie
City Buffalo
KBUF Airport is 5 miles east of Buffalo, NY.
Latitude 42-56-25.5000N
Longitude 078-43-50.1000W
Elevation 726ft

KBUF Airport METARs

METAR KBUF 262203Z 30016G23KT 10SM -SN OVC024 01/M05 A2987 RMK AO2 PCPN VRY LGT P0000 T00061050 $
Altimeter 29.87"
Temperature 0.6°C (33.1°F)
Wind 300° at 16KT with gusts to 23KT
Clouds overcast at 2,400ft
Visibility 10.0mi
Time observed: 2021-11-26T22:03:00Z

KBUF Airport Details

Status Operational
Activation March 1940
Ownership Public
Usage Public
Chart DETROIT
ATC on-site Yes
Beacon schedule sunset-sunrise
Beacon color clear green

KBUF Airport Contacts

Owner NIAGARA FRONTIER TRAN AUTH
Owner address 181 ELLICOTT ST, PO BOX 5008, BUFFALO, NY 14205
Owner phone 716-855-7300
Manager DANA TRIOLO
Manager address 1111 STEWART AVE., BETHPAGE, NY 11714
Manager phone 516-803-2682

KBUF Airport (Buffalo Niagara Intl) Radio Frequencies

KBUF (Airport) Radio Frequencies

UNICOM N/A
Common traffic advisory frequency (CTAF) N/A